EGPI/ILY METAR and TAF weather

Enter ICAO airport designator
Station Type Date Time Source
EGPI METAR 2019/08/25 13:50 UTC NOAA

EGPI 251350Z 23009KT 190V250 CAVOK 18/14 Q1016


Station Type Date Time Source
EGPI Decoded METAR 2019/08/25 13:50 UTC NOAA

Station name not available
Aug 25, 2019 - 09:50 AM EDT / 2019.08.25 1350 UTC
Wind: from the SW (230 degrees) at 10 MPH (9 KT) (direction variable):0
Visibility: greater than 7 mile(s):0
Temperature: 64 F (18 C)
Dew Point: 57 F (14 C)
Relative Humidity: 77%
Pressure (altimeter): 30.00 in. Hg (1016 hPa)
ob: EGPI 251350Z 23009KT 190V250 CAVOK 18/14 Q1016
cycle: 14

Station Type Date Time Source
EGPI TAF UTC NOAA

Error!

Example: see airport list